Don Juan — WRB6521 — position and weather

sailwx.info

Track history (hours):
 
Tides and Currents Weather Stations Pressure Air Temp Water Temp Dewpoint Dewpoint Depression Visibility Wind Speed Wind Dir Waves Ship Positions

Don Juan

Owner: LYDDON, JOHN A, Bakersfield, CA. More information available from US FCC via Universal Licensing System and Coast Guard Vessel Documentation Center.

Last reported at 2015-Aug-02 23:30 UTC. Time now 2015-Aug-03 00:26 UTC.
Position N 33°16' W 118°12'.

Type: Pleasure craft. MMSI: 366328490.

Date/timePositionNaut miles runAvg speedWind from/ knotsBaromVisibWave heightAir tempDewpointWater temp
2015-Aug-02 23:30N 33°16' W 118°12'9 6.4
2015-Aug-02 22:10N 33°12' W 118°02'4 6.7
2015-Aug-02 21:32N 33°13' W 117°57'4 2.9
2015-Aug-02 20:20N 33°09' W 117°56'5 5.8
2015-Aug-02 19:33N 33°05' W 117°53'6 6.2
2015-Aug-02 18:32N 33°11' W 117°51'26 0.6
2015-Aug-01 02:23N 33°37' W 117°55'0 0.0
2015-Aug-01 01:32N 33°37' W 117°55'0 0.0
2015-Aug-01 00:14N 33°37' W 117°55'0 0.0
2015-Jul-31 23:32N 33°37' W 117°55'  
2015-Jul-28 22:10N 33°21' W 118°19'4 5.8
2015-Jul-28 21:33N 33°23' W 118°16'  
2015-Jul-26 08:04N 33°37' W 117°55'0 0.0
2015-Jul-26 07:31N 33°37' W 117°55'0 0.0
2015-Jul-26 06:04N 33°37' W 117°55'0 0.0
2015-Jul-26 05:31N 33°37' W 117°55'0 0.0
2015-Jul-26 04:10N 33°37' W 117°55'0 0.0
2015-Jul-26 02:31N 33°37' W 117°55'0 0.0
2015-Jul-25 22:31N 33°37' W 117°55'0 0.0
2015-Jul-25 21:28N 33°37' W 117°55'5 5.1
2015-Jul-25 20:33N 33°32' W 117°53'4 3.7
2015-Jul-25 19:33N 33°29' W 117°52'6 3.2
2015-Jul-25 17:32N 33°25' W 117°46'  
Track history (hours):
 
Tides and Currents Weather Stations Pressure Air Temp Water Temp Dewpoint Dewpoint Depression Visibility Wind Speed Wind Dir Waves Ship Positions

Don Juan

Owner: LYDDON, JOHN A, Bakersfield, CA. More information available from US FCC via Universal Licensing System and Coast Guard Vessel Documentation Center.

Last reported at 2015-Aug-02 23:30 UTC. Time now 2015-Aug-03 00:26 UTC.
Position N 33°16' W 118°12'.

Type: Pleasure craft. MMSI: 366328490.

Date/timePositionNaut miles runAvg speedWind from/ knotsBaromVisibWave heightAir tempDewpointWater temp
2015-Aug-02 23:30N 33°16' W 118°12'9 6.4
2015-Aug-02 22:10N 33°12' W 118°02'4 6.7
2015-Aug-02 21:32N 33°13' W 117°57'4 2.9
2015-Aug-02 20:20N 33°09' W 117°56'5 5.8
2015-Aug-02 19:33N 33°05' W 117°53'6 6.2
2015-Aug-02 18:32N 33°11' W 117°51'26 0.6
2015-Aug-01 02:23N 33°37' W 117°55'0 0.0
2015-Aug-01 01:32N 33°37' W 117°55'0 0.0
2015-Aug-01 00:14N 33°37' W 117°55'0 0.0
2015-Jul-31 23:32N 33°37' W 117°55'  
2015-Jul-28 22:10N 33°21' W 118°19'4 5.8
2015-Jul-28 21:33N 33°23' W 118°16'  
2015-Jul-26 08:04N 33°37' W 117°55'0 0.0
2015-Jul-26 07:31N 33°37' W 117°55'0 0.0
2015-Jul-26 06:04N 33°37' W 117°55'0 0.0
2015-Jul-26 05:31N 33°37' W 117°55'0 0.0
2015-Jul-26 04:10N 33°37' W 117°55'0 0.0
2015-Jul-26 02:31N 33°37' W 117°55'0 0.0
2015-Jul-25 22:31N 33°37' W 117°55'0 0.0
2015-Jul-25 21:28N 33°37' W 117°55'5 5.1
2015-Jul-25 20:33N 33°32' W 117°53'4 3.7
2015-Jul-25 19:33N 33°29' W 117°52'6 3.2
2015-Jul-25 17:32N 33°25' W 117°46'  

Dump ship's entire track history